KFQD

Details ICAO KFQD
Name RUTHERFORD CO MARCHMAN FIELD
Region United States
Timezone America/New_York (UTC-4.0)
Plans Departing 5
Arriving 5
Stats Elevation 1,078 ft / 329 m (AMSL)
Location 35.428055° -81.935001°
Runways 1
Magnetic Variation 7.092° W
Sunrise 2018-05-24 10:18:47 UTC / 2018-05-24 06:18:47 Local
Sunset 2018-05-25 00:33:17 UTC / 2018-05-24 20:33:17 Local
Advertisement - Login to hide

Runways

ID Width Length Bearing (true) Bearing (mag) Surface Threshold Offset Overrun Length
01 100 ft / 30 m 5,010 ft / 1,527 m 14.93° 22.02° Asphalt 0 ft / 0 m 0 ft / 0 m
19 100 ft / 30 m 5,010 ft / 1,527 m 194.93° 202.02° Asphalt 0 ft / 0 m 0 ft / 0 m

Map

Weather


0- 5 10 15 20 25 30 35+ Temperature / ° C

Clouds and Precipitation
Forecast for 2018-05-24 18:00 UTC. Updated 5 hours ago

Ground ~20,000 ft ~40,000 ft Winds

METAR

KFQD 242125Z AUTO 04005KT 10SM BKN024 OVC038 25/20 A3013 RMK AO2 T02500198

TAF

Not found

Frequencies

Recorded 118.27 MHz AWOS 3
Approach 119.40 MHz RALEIGH APP/DEP
Unicom 122.80 MHz CTAF/UNICOM
Warning: Do not use this data for real-world aviation or navigation. No guarantee of current accuracy is given.